Time;durP1;ratioP1;P1;durP2;ratioP2;P2;SDS_P1;SDS_P2;PMS_P1;PMS_P2;Temp;Humidity;BMP_temperature;BMP_pressure;BME280_temperature;BME280_humidity;BME280_pressure;Samples;Min_cycle;Max_cycle;Signal;HPM_P1;HPM_P2
2021/08/23 00:01:56;;;;;;;7.80;6.30;;;;;;;23.06;49.13;99934.66;5051732;28;20382;-47
2021/08/23 00:04:22;;;;;;;8.23;6.53;;;;;;;23.40;48.39;99933.88;5051029;28;20016;-48
2021/08/23 00:06:47;;;;;;;7.82;6.38;;;;;;;23.83;47.38;99939.47;5050738;28;20039;-50
2021/08/23 00:09:13;;;;;;;10.95;6.40;;;;;;;23.34;48.90;99948.56;5051243;28;20021;-49
2021/08/23 00:11:38;;;;;;;9.40;6.40;;;;;;;23.20;49.15;99948.41;5050946;28;20029;-46
2021/08/23 00:14:04;;;;;;;6.85;5.90;;;;;;;23.17;49.49;99947.06;5050927;28;20489;-48
2021/08/23 00:16:29;;;;;;;7.63;5.90;;;;;;;24.08;46.81;99948.47;5051020;28;20111;-48
2021/08/23 00:18:55;;;;;;;9.27;6.38;;;;;;;23.36;48.87;99944.50;5051420;28;20021;-48
2021/08/23 00:21:25;;;;;;;12.07;6.50;;;;;;;23.12;49.61;99943.59;5051043;28;20463;-49
2021/08/23 00:24:07;;;;;;;11.30;6.22;;;;;;;23.10;49.90;99948.47;5050889;28;20025;-49
2021/08/23 00:26:33;;;;;;;10.68;6.40;;;;;;;23.87;47.54;99951.38;5036593;28;20049;-48
2021/08/23 00:28:58;;;;;;;7.70;6.25;;;;;;;23.39;49.13;99948.53;5030638;28;20033;-47
2021/08/23 00:31:24;;;;;;;8.45;6.15;;;;;;;22.99;50.64;99950.41;5030825;28;20087;-47
2021/08/23 00:33:49;;;;;;;8.40;6.70;;;;;;;22.89;50.75;99945.84;5029409;28;20021;-47
2021/08/23 00:36:15;;;;;;;7.05;6.03;;;;;;;23.43;49.36;99950.38;5029324;28;20025;-49
2021/08/23 00:38:40;;;;;;;8.90;5.95;;;;;;;23.40;49.17;99948.25;5030856;28;20025;-47
2021/08/23 00:41:06;;;;;;;7.97;6.03;;;;;;;23.10;50.16;99949.28;5030624;28;20489;-48
2021/08/23 00:43:32;;;;;;;8.35;6.22;;;;;;;22.97;50.80;99939.81;5030660;28;20526;-47
2021/08/23 00:45:58;;;;;;;9.30;6.30;;;;;;;22.94;51.04;99936.88;5030091;28;20017;-48
2021/08/23 00:48:23;;;;;;;8.35;6.35;;;;;;;23.68;48.53;99945.81;5030623;28;20099;-48
2021/08/23 00:50:49;;;;;;;8.10;6.10;;;;;;;23.37;49.47;99942.56;5030550;28;20501;-49
2021/08/23 00:53:15;;;;;;;11.10;5.95;;;;;;;23.19;49.97;99939.44;5030637;28;20033;-48
2021/08/23 00:55:40;;;;;;;8.10;6.30;;;;;;;23.06;50.53;99939.28;5030328;28;20048;-48
2021/08/23 00:58:06;;;;;;;8.10;6.30;;;;;;;23.58;48.92;99937.78;5030438;28;20083;-50
2021/08/23 01:00:32;;;;;;;9.82;6.30;;;;;;;23.36;50.02;99938.22;5030452;28;20033;-47
2021/08/23 01:02:59;;;;;;;8.60;5.80;;;;;;;23.22;49.96;99944.31;5029221;28;20040;-48
2021/08/23 01:05:31;;;;;;;7.55;5.95;;;;;;;23.04;51.03;99936.84;5030731;28;20028;-49
2021/08/23 01:07:59;;;;;;;12.32;6.28;;;;;;;23.27;50.20;99937.22;5030439;28;20056;-47
2021/08/23 01:10:37;;;;;;;10.90;6.20;;;;;;;23.63;49.44;99935.03;5028904;28;20029;-48
2021/08/23 01:13:04;;;;;;;12.68;6.70;;;;;;;23.32;50.13;99937.19;5029314;28;20026;-50
2021/08/23 01:15:30;;;;;;;9.70;6.22;;;;;;;23.11;50.59;99931.09;5030774;28;20100;-48
2021/08/23 01:17:55;;;;;;;9.93;6.15;;;;;;;23.15;50.82;99932.13;5030668;28;20113;-47
2021/08/23 01:20:21;;;;;;;9.20;6.20;;;;;;;23.82;48.76;99929.72;5030308;28;20466;-49
2021/08/23 01:22:48;;;;;;;10.57;6.43;;;;;;;23.28;50.29;99934.22;5028965;28;20096;-49
2021/08/23 01:25:16;;;;;;;13.18;5.97;;;;;;;23.19;50.69;99925.88;5030338;28;20441;-48
2021/08/23 01:27:42;;;;;;;8.90;6.18;;;;;;;23.16;51.26;99931.06;5028945;28;20030;-48
2021/08/23 01:30:08;;;;;;;9.68;6.32;;;;;;;23.65;49.80;99923.88;5012229;28;20033;-51
2021/08/23 01:32:34;;;;;;;9.60;6.40;;;;;;;23.71;49.63;99922.72;5030302;28;20116;-47
2021/08/23 01:35:04;;;;;;;10.45;6.22;;;;;;;23.09;51.78;99928.66;5028912;28;20108;-49
2021/08/23 01:37:31;;;;;;;8.00;6.20;;;;;;;23.11;51.64;99931.88;5028704;28;20045;-50
2021/08/23 01:39:56;;;;;;;11.75;6.32;;;;;;;23.21;51.42;99933.75;5030558;28;20017;-51
2021/08/23 01:42:22;;;;;;;8.32;6.22;;;;;;;23.93;49.52;99936.66;5030207;28;20500;-49
2021/08/23 01:44:47;;;;;;;9.93;6.43;;;;;;;23.30;51.03;99937.44;5030132;28;20167;-49
2021/08/23 01:47:13;;;;;;;8.25;6.20;;;;;;;23.13;51.90;99931.63;5030063;28;20549;-48
2021/08/23 01:49:38;;;;;;;7.80;6.32;;;;;;;23.18;52.29;99935.09;5030018;28;20034;-51
2021/08/23 01:52:06;;;;;;;8.65;6.47;;;;;;;23.68;50.49;99929.53;5029944;28;20021;-49
2021/08/23 01:54:31;;;;;;;13.30;6.57;;;;;;;23.53;49.71;99922.34;5030366;28;20021;-47
2021/08/23 01:56:57;;;;;;;9.80;6.60;;;;;;;22.94;51.57;99924.13;5029673;28;20021;-48
2021/08/23 01:59:25;;;;;;;8.30;6.10;;;;;;;22.51;53.52;99923.81;5032226;28;20022;-51
2021/08/23 02:01:51;;;;;;;8.40;6.03;;;;;;;22.63;53.32;99923.47;5034173;28;20018;-50
2021/08/23 02:04:16;;;;;;;10.20;6.30;;;;;;;23.26;51.33;99927.47;5033702;28;20146;-48
2021/08/23 02:06:42;;;;;;;9.43;6.30;;;;;;;22.61;52.82;99929.19;5033562;28;20482;-47
2021/08/23 02:09:07;;;;;;;7.80;5.95;;;;;;;22.60;53.31;99932.19;5033530;28;20053;-47
2021/08/23 02:11:33;;;;;;;10.63;6.65;;;;;;;22.59;52.72;99922.41;5033564;28;20026;-46
2021/08/23 02:13:58;;;;;;;7.90;6.50;;;;;;;23.28;50.63;99925.25;5033598;28;20021;-47
2021/08/23 02:16:23;;;;;;;8.85;6.47;;;;;;;22.91;51.45;99923.88;5033362;28;20104;-49
2021/08/23 02:18:49;;;;;;;10.82;6.80;;;;;;;22.71;52.35;99928.31;5033295;28;20473;-49
2021/08/23 02:21:14;;;;;;;8.32;5.90;;;;;;;22.58;52.97;99932.47;5033161;28;20365;-48
2021/08/23 02:23:41;;;;;;;8.77;6.07;;;;;;;22.87;52.17;99923.63;5033620;28;20029;-49
2021/08/23 02:26:06;;;;;;;10.00;6.45;;;;;;;23.12;51.47;99924.59;5044124;28;20025;-49
2021/08/23 02:28:32;;;;;;;7.45;6.15;;;;;;;22.69;52.31;99916.13;5053167;28;20032;-49
2021/08/23 02:30:57;;;;;;;8.38;6.55;;;;;;;22.47;53.06;99920.03;5052934;28;20032;-48
2021/08/23 02:33:23;;;;;;;9.32;6.80;;;;;;;22.70;51.69;99923.19;5052863;28;20378;-47
2021/08/23 02:35:48;;;;;;;8.48;6.30;;;;;;;23.34;49.83;99915.97;5052949;28;20029;-50
2021/08/23 02:38:14;;;;;;;9.80;6.50;;;;;;;22.91;50.83;99921.16;5053165;28;20029;-48
2021/08/23 02:40:39;;;;;;;12.23;6.43;;;;;;;22.79;50.62;99916.88;5052937;28;20420;-50
2021/08/23 02:43:05;;;;;;;13.27;6.88;;;;;;;22.75;51.57;99915.00;5052855;28;20025;-47
2021/08/23 02:45:30;;;;;;;9.27;6.55;;;;;;;23.10;50.77;99921.34;5053034;28;20346;-50
2021/08/23 02:47:56;;;;;;;10.35;6.93;;;;;;;23.28;50.43;99917.94;5052897;28;20131;-50
2021/08/23 02:50:21;;;;;;;9.10;6.25;;;;;;;22.64;51.99;99915.06;5052694;28;20086;-49
2021/08/23 02:52:47;;;;;;;10.98;7.43;;;;;;;22.19;53.53;99924.19;5052721;28;20024;-49
2021/08/23 02:55:13;;;;;;;13.18;6.90;;;;;;;22.30;52.06;99925.00;5052481;28;20063;-48
2021/08/23 02:57:38;;;;;;;13.70;7.22;;;;;;;23.08;50.15;99915.38;5052676;28;20110;-47
2021/08/23 03:00:05;;;;;;;17.50;8.27;;;;;;;22.33;52.34;99925.25;5052654;28;20040;-47
2021/08/23 03:02:31;;;;;;;18.77;7.93;;;;;;;22.09;53.16;99916.91;5052519;28;20550;-51
2021/08/23 03:04:56;;;;;;;12.65;7.63;;;;;;;22.03;52.46;99918.00;5051416;28;20033;-49
2021/08/23 03:07:21;;;;;;;17.35;7.90;;;;;;;22.47;51.33;99920.03;5052376;28;20480;-47
2021/08/23 03:09:47;;;;;;;17.02;7.80;;;;;;;22.63;51.60;99916.16;5051634;28;20044;-48
2021/08/23 03:12:15;;;;;;;17.52;8.10;;;;;;;22.03;53.58;99924.22;5052042;28;20075;-48
2021/08/23 03:14:40;;;;;;;15.00;7.75;;;;;;;21.98;53.51;99923.44;5052072;28;20098;-49
2021/08/23 03:17:06;;;;;;;14.23;7.53;;;;;;;22.01;53.18;99918.28;5052088;28;20465;-49
2021/08/23 03:19:31;;;;;;;15.93;7.75;;;;;;;22.88;50.59;99919.00;5051837;28;20414;-48
2021/08/23 03:21:57;;;;;;;14.18;7.90;;;;;;;22.22;52.16;99912.81;5051994;28;20025;-50
2021/08/23 03:24:22;;;;;;;14.48;7.78;;;;;;;22.08;52.84;99917.16;5051949;28;20025;-47
2021/08/23 03:26:48;;;;;;;15.63;7.80;;;;;;;22.16;52.48;99916.59;5035094;28;20029;-47
2021/08/23 03:29:13;;;;;;;12.82;7.18;;;;;;;22.60;51.28;99915.91;5032112;28;20438;-50
2021/08/23 03:31:39;;;;;;;11.75;7.63;;;;;;;22.63;50.23;99907.22;5031415;28;20067;-49
2021/08/23 03:34:11;;;;;;;9.63;7.38;;;;;;;22.52;50.17;99911.88;5031717;28;20116;-50
2021/08/23 03:36:36;;;;;;;17.65;7.82;;;;;;;22.37;51.23;99917.34;5031178;28;20032;-47
2021/08/23 03:39:02;;;;;;;12.25;7.55;;;;;;;22.46;50.50;99921.13;5031119;28;20033;-46
2021/08/23 03:41:27;;;;;;;13.18;7.40;;;;;;;22.93;48.84;99922.50;5030937;28;20488;-48
2021/08/23 03:43:53;;;;;;;14.48;7.63;;;;;;;22.54;49.94;99925.16;5031010;28;20029;-48
2021/08/23 03:46:18;;;;;;;11.73;7.90;;;;;;;22.31;49.98;99921.97;5030899;28;20405;-48
2021/08/23 03:48:44;;;;;;;10.23;7.13;;;;;;;22.39;49.35;99920.59;5030408;28;20044;-50
2021/08/23 03:51:09;;;;;;;12.77;7.40;;;;;;;23.00;47.67;99916.78;5030233;28;20432;-50
2021/08/23 03:53:34;;;;;;;17.33;8.15;;;;;;;22.71;48.56;99909.31;5030107;28;20036;-50
2021/08/23 03:56:00;;;;;;;10.13;7.28;;;;;;;22.28;49.82;99919.03;5030020;28;20037;-49
2021/08/23 03:58:25;;;;;;;12.07;7.40;;;;;;;22.39;50.00;99917.88;5030119;28;20025;-49
2021/08/23 04:00:51;;;;;;;14.43;7.60;;;;;;;22.85;48.56;99912.25;5029825;28;20115;-46
2021/08/23 04:03:16;;;;;;;18.45;7.72;;;;;;;23.09;46.92;99908.84;5030037;28;20025;-47
2021/08/23 04:05:42;;;;;;;14.32;7.43;;;;;;;22.81;48.13;99908.47;5029836;28;20040;-48
2021/08/23 04:08:08;;;;;;;13.55;7.80;;;;;;;22.61;49.09;99910.19;5029739;28;20077;-48
2021/08/23 04:10:33;;;;;;;15.05;7.63;;;;;;;22.75;48.44;99909.56;5029644;28;20068;-49
2021/08/23 04:12:59;;;;;;;13.45;7.50;;;;;;;23.61;43.74;99908.16;5029792;28;20033;-50
2021/08/23 04:15:24;;;;;;;16.55;8.73;;;;;;;23.33;46.84;99904.31;5029929;28;20040;-49
2021/08/23 04:17:50;;;;;;;19.48;7.60;;;;;;;23.31;46.32;99901.09;5029549;28;20021;-47
2021/08/23 04:20:15;;;;;;;16.27;8.82;;;;;;;23.23;47.43;99901.69;5029201;28;20087;-46
2021/08/23 04:22:41;;;;;;;16.33;8.40;;;;;;;23.60;47.12;99905.72;5029563;28;20398;-47
2021/08/23 04:25:07;;;;;;;21.85;8.07;;;;;;;23.46;48.06;99908.28;5030102;28;20026;-50
2021/08/23 04:27:32;;;;;;;18.10;7.97;;;;;;;23.16;48.32;99912.06;5030319;28;20478;-49
2021/08/23 04:29:57;;;;;;;20.10;8.88;;;;;;;23.42;48.05;99905.34;5040895;28;20446;-48
2021/08/23 04:32:23;;;;;;;13.55;8.00;;;;;;;23.69;46.24;99914.88;5029390;28;20029;-46
2021/08/23 04:34:48;;;;;;;14.02;8.15;;;;;;;24.68;43.77;99918.94;5030104;28;20107;-48
2021/08/23 04:37:14;;;;;;;16.65;9.02;;;;;;;24.51;43.97;99911.28;5030143;28;20033;-52
2021/08/23 04:39:39;;;;;;;15.70;8.93;;;;;;;24.52;43.84;99906.63;5030134;28;20026;-48
2021/08/23 04:42:05;;;;;;;22.10;8.90;;;;;;;24.43;44.19;99916.50;5042499;28;20033;-48
2021/08/23 04:44:31;;;;;;;22.13;9.50;;;;;;;24.94;43.34;99915.84;5049460;28;20025;-48
2021/08/23 04:46:56;;;;;;;22.40;9.52;;;;;;;24.90;44.04;99910.19;5049818;28;20025;-51
2021/08/23 04:49:21;;;;;;;16.23;8.75;;;;;;;25.13;42.69;99916.66;5049974;28;20025;-50
2021/08/23 04:51:47;;;;;;;13.30;8.15;;;;;;;25.10;41.41;99900.09;5050871;28;20025;-49
2021/08/23 04:54:12;;;;;;;17.75;8.18;;;;;;;25.36;41.13;99919.59;5050002;28;20456;-51
2021/08/23 04:56:38;;;;;;;15.93;8.13;;;;;;;26.17;39.26;99916.50;5049928;28;20036;-47
2021/08/23 04:59:03;;;;;;;12.18;7.50;;;;;;;25.86;39.94;99916.25;5049448;28;20032;-48
2021/08/23 05:01:29;;;;;;;12.40;7.72;;;;;;;25.72;40.31;99913.50;5048348;28;20428;-49
2021/08/23 05:03:54;;;;;;;12.48;6.95;;;;;;;25.90;40.07;99923.53;5047872;28;20064;-47
2021/08/23 05:06:20;;;;;;;9.90;7.13;;;;;;;26.82;38.63;99920.88;5047987;28;20028;-48
2021/08/23 05:08:46;;;;;;;11.50;7.75;;;;;;;26.66;38.66;99922.34;5047525;28;20068;-47
2021/08/23 05:11:11;;;;;;;10.05;7.63;;;;;;;26.56;39.05;99919.78;5047751;28;20021;-48
2021/08/23 05:13:36;;;;;;;9.63;7.05;;;;;;;26.81;38.83;99922.00;5046464;28;20496;-47
2021/08/23 05:16:02;;;;;;;15.57;7.53;;;;;;;27.15;37.94;99917.94;5048373;28;20025;-49
2021/08/23 05:18:27;;;;;;;9.50;7.55;;;;;;;27.73;36.35;99918.16;5049675;28;20037;-49
2021/08/23 05:20:53;;;;;;;12.25;7.75;;;;;;;27.36;37.12;99912.81;5049944;28;20021;-48
2021/08/23 05:23:18;;;;;;;13.07;8.18;;;;;;;27.50;36.89;99918.19;5049648;28;20036;-47
2021/08/23 05:25:44;;;;;;;9.93;7.72;;;;;;;27.45;37.04;99893.72;5049542;28;20020;-49
2021/08/23 05:28:09;;;;;;;11.55;7.80;;;;;;;28.66;35.14;99923.47;5049473;28;20032;-48
2021/08/23 05:30:35;;;;;;;11.48;8.40;;;;;;;28.21;34.99;99922.88;5049528;28;20028;-47
2021/08/23 05:33:00;;;;;;;10.82;7.82;;;;;;;28.12;35.43;99922.03;5051321;28;20032;-47
2021/08/23 05:35:26;;;;;;;9.20;7.65;;;;;;;28.24;35.60;99917.56;5053639;28;20025;-47
2021/08/23 05:37:52;;;;;;;11.63;8.07;;;;;;;28.97;33.82;99921.72;5053349;28;20025;-46
2021/08/23 05:40:19;;;;;;;13.25;8.45;;;;;;;29.15;33.24;99922.53;5051879;28;20037;-51
2021/08/23 05:42:45;;;;;;;11.45;8.60;;;;;;;28.95;33.58;99926.72;5052996;28;20025;-46
2021/08/23 05:45:10;;;;;;;13.27;8.18;;;;;;;29.08;33.49;99933.19;5053281;28;20036;-47
2021/08/23 05:47:36;;;;;;;15.63;7.47;;;;;;;28.95;33.46;99926.72;5053173;28;20033;-51
2021/08/23 05:50:02;;;;;;;12.38;7.80;;;;;;;29.94;31.81;99925.94;5053785;28;20052;-49
2021/08/23 05:52:28;;;;;;;12.00;8.48;;;;;;;29.52;32.55;99923.78;5053498;28;20028;-49
2021/08/23 05:54:53;;;;;;;9.93;7.43;;;;;;;29.54;32.79;99926.19;5053379;28;20028;-49
2021/08/23 05:57:19;;;;;;;10.75;7.90;;;;;;;29.92;31.77;99929.00;5052826;28;20029;-53
2021/08/23 05:59:44;;;;;;;11.55;7.63;;;;;;;30.68;30.94;99937.50;5051708;28;20021;-50
2021/08/23 06:02:09;;;;;;;13.07;7.45;;;;;;;30.43;30.88;99928.31;5053058;28;20361;-50
2021/08/23 06:04:35;;;;;;;11.07;7.07;;;;;;;30.13;31.46;99936.50;5052701;28;20024;-48
2021/08/23 06:07:00;;;;;;;12.15;7.50;;;;;;;29.99;31.94;99936.75;5051689;28;20045;-49
2021/08/23 06:09:26;;;;;;;8.07;6.97;;;;;;;30.32;31.96;99927.88;5052801;28;20052;-50
2021/08/23 06:11:51;;;;;;;9.25;7.32;;;;;;;30.55;31.42;99934.66;5052771;28;20541;-50
2021/08/23 06:14:17;;;;;;;9.13;6.90;;;;;;;29.69;32.89;99931.16;5052786;28;20481;-48
2021/08/23 06:16:43;;;;;;;9.38;6.50;;;;;;;29.99;32.67;99931.25;5052749;28;20031;-48
2021/08/23 06:19:08;;;;;;;9.98;6.70;;;;;;;29.77;32.92;99927.59;5053044;28;20032;-50
2021/08/23 06:21:36;;;;;;;8.40;6.95;;;;;;;30.42;32.02;99932.19;5052843;28;20021;-51
2021/08/23 06:24:02;;;;;;;12.38;6.85;;;;;;;30.04;32.71;99928.31;5052698;28;20103;-48
2021/08/23 06:26:27;;;;;;;11.80;6.20;;;;;;;29.26;34.06;99920.28;5038873;28;20251;-47
2021/08/23 06:28:53;;;;;;;10.45;6.43;;;;;;;29.51;33.81;99924.94;5032765;28;20055;-46
2021/08/23 06:31:19;;;;;;;10.32;6.50;;;;;;;30.64;31.99;99933.81;5032574;28;20026;-47
2021/08/23 06:33:44;;;;;;;9.02;6.32;;;;;;;31.07;31.37;99925.28;5032385;28;20021;-47
2021/08/23 06:36:09;;;;;;;11.90;7.07;;;;;;;31.12;31.25;99925.03;5032417;28;20025;-47
2021/08/23 06:38:35;;;;;;;14.52;6.30;;;;;;;31.34;31.12;99929.38;5031147;28;20059;-49
2021/08/23 06:41:00;;;;;;;9.98;6.47;;;;;;;31.74;30.65;99926.06;5032167;28;20384;-50
2021/08/23 06:43:26;;;;;;;10.50;5.90;;;;;;;32.28;29.64;99924.28;5031938;28;20045;-50
2021/08/23 06:45:52;;;;;;;8.40;6.15;;;;;;;31.96;30.30;99926.75;5031477;28;20029;-47
2021/08/23 06:48:17;;;;;;;9.15;6.32;;;;;;;31.89;30.37;99921.00;5032039;28;20076;-47
2021/08/23 06:50:43;;;;;;;9.82;6.07;;;;;;;32.02;30.41;99924.63;5031590;28;20129;-49
2021/08/23 06:53:08;;;;;;;7.30;6.00;;;;;;;32.85;29.17;99919.72;5032132;28;20497;-49
2021/08/23 06:55:34;;;;;;;9.57;5.70;;;;;;;32.83;28.95;99911.78;5047788;28;20025;-48
2021/08/23 06:58:02;;;;;;;8.95;5.70;;;;;;;32.75;28.90;99921.00;5051927;28;20048;-48
2021/08/23 07:00:27;;;;;;;8.15;5.95;;;;;;;32.50;28.93;99914.69;5052048;28;20499;-49
2021/08/23 07:02:53;;;;;;;8.30;5.45;;;;;;;32.98;28.51;99913.00;5051778;28;20033;-47
2021/08/23 07:05:19;;;;;;;7.38;6.10;;;;;;;33.66;27.40;99909.38;5050260;28;20025;-48
2021/08/23 07:07:44;;;;;;;10.10;6.00;;;;;;;33.53;27.74;99918.03;5051489;28;20048;-51
2021/08/23 07:10:12;;;;;;;7.30;5.95;;;;;;;33.53;27.96;99915.28;5051909;28;20146;-50
2021/08/23 07:12:38;;;;;;;9.18;6.10;;;;;;;33.52;27.71;99914.47;5051928;28;20038;-49
2021/08/23 07:15:04;;;;;;;7.88;5.65;;;;;;;33.96;26.76;99910.88;5051894;28;20025;-48
2021/08/23 07:17:30;;;;;;;14.48;5.90;;;;;;;34.07;26.57;99911.94;5052307;28;20013;-50
2021/08/23 07:19:55;;;;;;;7.68;5.72;;;;;;;33.80;27.03;99911.69;5051972;28;20021;-51
2021/08/23 07:22:22;;;;;;;10.80;6.30;;;;;;;33.72;26.97;99915.44;5050580;28;20369;-50
2021/08/23 07:24:47;;;;;;;8.50;5.68;;;;;;;34.28;26.03;99908.91;5052066;28;20020;-48
2021/08/23 07:27:13;;;;;;;10.85;5.88;;;;;;;34.66;25.40;99910.91;5052021;28;20108;-47
2021/08/23 07:29:39;;;;;;;10.05;5.93;;;;;;;34.03;26.97;99898.03;5051990;28;20200;-50
2021/08/23 07:32:05;;;;;;;8.80;6.28;;;;;;;33.84;26.65;99897.97;5051379;28;20130;-50
2021/08/23 07:34:30;;;;;;;7.35;5.53;;;;;;;33.44;27.66;99896.94;5051497;28;20021;-50
2021/08/23 07:36:56;;;;;;;10.48;6.53;;;;;;;34.06;26.57;99900.09;5051204;28;20016;-48
2021/08/23 07:39:21;;;;;;;9.27;5.90;;;;;;;33.90;26.77;99896.53;5049883;28;20040;-47
2021/08/23 07:41:48;;;;;;;9.02;5.65;;;;;;;33.73;26.78;99892.19;5050597;28;20481;-47
2021/08/23 07:44:13;;;;;;;10.63;6.40;;;;;;;33.73;26.94;99894.16;5050761;28;20029;-50
2021/08/23 07:46:39;;;;;;;11.18;6.28;;;;;;;33.77;26.96;99895.81;5050919;28;20039;-50
2021/08/23 07:49:05;;;;;;;11.05;5.90;;;;;;;34.03;26.33;99900.00;5050637;28;20021;-48
2021/08/23 07:51:30;;;;;;;8.10;6.13;;;;;;;33.86;26.52;99893.69;5051059;28;20065;-47
2021/08/23 07:53:56;;;;;;;6.88;5.40;;;;;;;33.93;25.71;99895.84;5050840;28;20032;-47
2021/08/23 07:56:21;;;;;;;6.53;5.93;;;;;;;33.98;25.47;99895.53;5051123;28;20039;-48
2021/08/23 07:58:47;;;;;;;8.15;5.55;;;;;;;34.63;24.70;99897.03;5050915;28;20025;-50
2021/08/23 08:01:12;;;;;;;8.30;5.57;;;;;;;33.45;25.40;99894.97;5051235;28;20024;-50
2021/08/23 08:03:38;;;;;;;9.13;5.50;;;;;;;33.36;25.76;99895.16;5050895;28;20028;-49
2021/08/23 08:06:04;;;;;;;9.25;5.60;;;;;;;33.49;26.11;99887.59;5050992;28;20051;-48
2021/08/23 08:08:29;;;;;;;6.65;5.07;;;;;;;34.07;24.68;99887.88;5050809;28;20505;-48
2021/08/23 08:10:56;;;;;;;10.55;5.47;;;;;;;33.91;25.17;99892.63;5050567;28;20047;-51
2021/08/23 08:13:22;;;;;;;9.43;5.60;;;;;;;33.50;25.92;99889.22;5050606;28;20060;-50
2021/08/23 08:15:48;;;;;;;8.07;5.43;;;;;;;33.38;25.54;99887.34;5050764;28;20092;-51
2021/08/23 08:18:13;;;;;;;7.82;5.45;;;;;;;32.84;26.02;99883.09;5050758;28;20028;-48
2021/08/23 08:20:39;;;;;;;8.43;5.28;;;;;;;32.85;26.13;99878.38;5050815;28;20453;-50
2021/08/23 08:23:04;;;;;;;7.25;5.20;;;;;;;32.87;25.88;99878.84;5050518;28;20044;-49
2021/08/23 08:25:30;;;;;;;9.52;5.30;;;;;;;33.39;24.74;99877.09;5044486;28;20120;-50
2021/08/23 08:27:55;;;;;;;7.95;5.25;;;;;;;33.50;24.33;99875.44;5030544;28;20021;-49
2021/08/23 08:30:22;;;;;;;5.95;5.03;;;;;;;33.96;24.39;99869.47;5030840;28;20424;-48
2021/08/23 08:32:47;;;;;;;5.90;4.65;;;;;;;33.98;23.04;99881.75;5030529;28;20029;-48
2021/08/23 08:35:13;;;;;;;6.22;4.70;;;;;;;33.89;23.55;99867.31;5030435;28;20028;-50
2021/08/23 08:37:39;;;;;;;5.18;4.60;;;;;;;34.24;23.19;99878.44;5030585;28;20053;-50
2021/08/23 08:40:05;;;;;;;8.68;4.63;;;;;;;33.69;23.24;99863.72;5030258;28;20033;-47
2021/08/23 08:42:30;;;;;;;6.40;4.10;;;;;;;34.03;22.39;99861.38;5028834;28;20100;-48
2021/08/23 08:44:56;;;;;;;5.45;4.10;;;;;;;32.99;23.09;99856.72;5028957;28;20022;-50
2021/08/23 08:47:21;;;;;;;5.85;4.75;;;;;;;33.16;23.79;99844.59;5030782;28;20022;-49
2021/08/23 08:49:47;;;;;;;5.55;4.30;;;;;;;32.69;23.07;99851.59;5029600;28;20029;-50
2021/08/23 08:52:13;;;;;;;4.65;3.83;;;;;;;32.49;22.06;99839.56;5030505;28;20029;-49
2021/08/23 08:54:38;;;;;;;5.38;4.03;;;;;;;32.61;21.50;99837.94;5030509;28;20026;-50
2021/08/23 08:57:04;;;;;;;4.38;3.33;;;;;;;33.14;20.55;99846.13;5030044;28;20032;-49
2021/08/23 08:59:30;;;;;;;6.07;3.83;;;;;;;32.91;20.84;99844.69;5030186;28;20083;-47
2021/08/23 09:01:56;;;;;;;5.05;3.85;;;;;;;32.32;21.85;99848.09;5029919;28;20025;-50
2021/08/23 09:04:32;;;;;;;5.10;3.60;;;;;;;32.99;20.77;99831.91;5030084;28;20025;-48
2021/08/23 09:06:58;;;;;;;5.80;3.90;;;;;;;33.16;21.26;99839.09;5029039;28;20073;-48
2021/08/23 09:09:24;;;;;;;4.53;3.90;;;;;;;33.26;21.06;99830.31;5029799;28;20439;-46
2021/08/23 09:12:07;;;;;;;5.25;4.10;;;;;;;33.62;20.66;99830.41;5028613;28;20026;-47
2021/08/23 09:14:33;;;;;;;5.75;4.07;;;;;;;34.42;19.88;99831.91;5029727;28;20118;-49
2021/08/23 09:17:05;;;;;;;5.40;3.85;;;;;;;33.73;19.92;99828.72;5029954;28;20436;-48
2021/08/23 09:19:34;;;;;;;5.22;3.88;;;;;;;33.35;20.52;99818.31;5029750;28;20478;-50
2021/08/23 09:22:03;;;;;;;5.60;3.88;;;;;;;32.84;20.49;99827.19;5030112;28;20037;-48
2021/08/23 09:24:29;;;;;;;4.57;3.75;;;;;;;32.82;20.47;99821.22;5029392;28;20142;-48
2021/08/23 09:27:06;;;;;;;4.15;3.75;;;;;;;32.59;21.42;99816.25;5029355;28;20256;-48
2021/08/23 09:29:35;;;;;;;5.75;3.70;;;;;;;32.73;21.36;99813.13;5029421;28;20032;-49
2021/08/23 09:32:01;;;;;;;6.20;3.78;;;;;;;32.28;20.65;99806.69;5029237;28;20025;-50
2021/08/23 09:34:26;;;;;;;4.72;4.10;;;;;;;32.13;20.79;99815.69;5029444;28;20151;-48
2021/08/23 09:36:58;;;;;;;4.30;3.90;;;;;;;32.78;20.16;99796.31;5029358;28;20026;-48
2021/08/23 09:39:27;;;;;;;5.70;3.92;;;;;;;32.91;20.61;99803.38;5029350;28;20036;-48
2021/08/23 09:42:03;;;;;;;5.95;4.40;;;;;;;32.98;21.29;99802.78;5029640;28;20041;-49
2021/08/23 09:44:34;;;;;;;6.72;4.30;;;;;;;33.01;21.61;99799.28;5027976;28;20049;-49
2021/08/23 09:46:59;;;;;;;4.53;4.00;;;;;;;33.25;22.45;99801.13;5029231;28;20532;-50
2021/08/23 09:49:33;;;;;;;4.70;4.20;;;;;;;33.21;22.11;99791.97;5029329;28;20474;-49
2021/08/23 09:51:58;;;;;;;6.75;4.60;;;;;;;32.41;23.06;99793.69;5028921;28;20049;-49
2021/08/23 09:54:24;;;;;;;5.03;4.38;;;;;;;32.53;22.99;99793.66;5029102;28;20033;-48
2021/08/23 09:56:51;;;;;;;6.72;4.30;;;;;;;32.58;22.39;99789.06;5029148;28;20036;-48
2021/08/23 09:59:35;;;;;;;7.38;4.35;;;;;;;33.00;22.01;99783.13;5029461;28;20480;-49
2021/08/23 10:02:01;;;;;;;5.15;4.63;;;;;;;33.18;22.22;99783.63;5011204;28;20513;-48
2021/08/23 10:04:26;;;;;;;5.40;4.25;;;;;;;33.43;21.75;99779.50;5029508;28;20021;-49
2021/08/23 10:06:52;;;;;;;5.90;4.35;;;;;;;33.36;21.79;99776.59;5029175;28;20104;-50
2021/08/23 10:09:25;;;;;;;6.25;4.15;;;;;;;34.53;20.94;99776.06;5028791;28;20024;-47
2021/08/23 10:11:52;;;;;;;5.90;4.40;;;;;;;34.45;21.13;99766.84;5027443;28;20563;-50
2021/08/23 10:14:17;;;;;;;5.75;4.38;;;;;;;34.45;20.36;99775.91;5029368;28;20426;-48
2021/08/23 10:16:43;;;;;;;7.00;4.50;;;;;;;33.98;21.29;99773.31;5029041;28;20026;-48
2021/08/23 10:19:09;;;;;;;5.10;4.20;;;;;;;33.83;21.03;99772.19;5029384;28;20022;-48
2021/08/23 10:21:35;;;;;;;5.70;4.40;;;;;;;34.34;20.74;99766.59;5015258;28;20121;-47
2021/08/23 10:24:01;;;;;;;5.63;4.45;;;;;;;34.22;21.15;99762.03;5032633;28;20096;-47
2021/08/23 10:26:26;;;;;;;5.88;4.43;;;;;;;34.26;21.11;99771.19;5046115;28;20036;-50
2021/08/23 10:28:52;;;;;;;5.25;3.90;;;;;;;34.34;19.90;99769.38;5052871;28;20032;-49
2021/08/23 10:31:21;;;;;;;7.78;4.40;;;;;;;34.42;20.62;99759.25;5053187;28;20032;-47
2021/08/23 10:33:47;;;;;;;7.80;4.20;;;;;;;34.53;20.12;99765.00;5052874;28;20056;-49
2021/08/23 10:36:16;;;;;;;6.38;4.25;;;;;;;33.84;20.79;99760.81;5052811;28;20163;-48
2021/08/23 10:38:41;;;;;;;5.20;4.07;;;;;;;33.64;21.16;99754.44;5051497;28;20107;-50
2021/08/23 10:41:14;;;;;;;5.72;4.18;;;;;;;33.78;20.65;99753.19;5052415;28;20059;-47
2021/08/23 10:43:53;;;;;;;4.88;4.38;;;;;;;34.15;20.85;99752.78;5052219;28;20400;-48
2021/08/23 10:46:29;;;;;;;5.13;3.95;;;;;;;34.38;20.51;99753.66;5052447;28;20048;-49
2021/08/23 10:48:56;;;;;;;5.22;4.05;;;;;;;33.38;20.94;99745.91;5052194;28;20056;-50
2021/08/23 10:51:41;;;;;;;7.20;4.07;;;;;;;33.83;20.45;99755.63;5051885;28;20017;-51
2021/08/23 10:54:20;;;;;;;5.45;3.75;;;;;;;33.67;20.29;99741.88;5050617;28;20025;-51
2021/08/23 10:56:46;;;;;;;4.22;3.72;;;;;;;33.42;20.93;99744.03;5050107;28;20048;-50
2021/08/23 10:59:16;;;;;;;5.78;3.88;;;;;;;33.67;20.44;99734.41;5049860;28;20043;-49
2021/08/23 11:01:55;;;;;;;5.13;4.22;;;;;;;33.77;20.23;99733.03;5050028;28;20013;-49
2021/08/23 11:04:34;;;;;;;5.15;3.85;;;;;;;34.14;19.92;99726.31;5050017;28;20502;-50
2021/08/23 11:07:00;;;;;;;4.43;3.75;;;;;;;34.12;19.88;99723.13;5048150;28;20103;-49
2021/08/23 11:09:40;;;;;;;5.53;3.70;;;;;;;33.96;19.98;99726.75;5051990;28;20044;-49
2021/08/23 11:12:25;;;;;;;4.22;3.60;;;;;;;33.64;20.15;99723.28;5052078;28;20108;-50
2021/08/23 11:14:52;;;;;;;5.05;3.80;;;;;;;33.71;19.65;99717.94;5051977;28;20120;-51
2021/08/23 11:17:25;;;;;;;4.30;3.90;;;;;;;33.85;19.36;99714.69;5051892;28;20119;-51
2021/08/23 11:19:50;;;;;;;5.25;3.78;;;;;;;33.86;19.65;99719.06;5050874;28;20433;-50
2021/08/23 11:22:16;;;;;;;5.55;3.75;;;;;;;33.60;20.00;99714.91;5051980;28;20493;-51
2021/08/23 11:24:41;;;;;;;5.07;4.00;;;;;;;33.83;20.19;99714.25;5052407;28;20028;-50
2021/08/23 11:27:07;;;;;;;6.20;3.83;;;;;;;34.59;19.08;99714.59;5051584;28;20021;-49